Time,TemperatureF,DewpointF,PressureIn,WindDirection,WindDirectionDegrees,WindSpeedMPH,WindSpeedGustMPH,Humidity,HourlyPrecipIn,Conditions,Clouds,dailyrainin,SoftwareType,DateUTC
2014-08-27 00:42:00,54.3,31.7,30.10,SW,215,-999.0,-999.0,42,0.00,,,-99.99,,2014-08-27 06:42:00,
2014-08-27 00:47:00,52.7,29.6,30.14,SW,215,-999.0,-999.0,41,0.00,,,-99.99,,2014-08-27 06:47:00,
2014-08-27 01:42:00,52.7,29.6,30.10,SW,216,-999.0,-999.0,41,0.00,,,-99.99,,2014-08-27 07:42:00,
2014-08-27 01:47:00,52.7,29.6,30.14,SW,215,-999.0,-999.0,41,0.00,,,-99.99,,2014-08-27 07:47:00,
2014-08-27 02:42:00,46.2,25.0,30.10,SSW,195,-999.0,-999.0,43,0.00,,,-99.99,,2014-08-27 08:42:00,
2014-08-27 02:47:00,46.2,26.1,30.14,SSW,195,-999.0,-999.0,45,0.00,,,-99.99,,2014-08-27 08:47:00,
2014-08-27 03:42:00,44.6,24.6,30.10,SSW,195,-999.0,-999.0,45,0.00,,,-99.99,,2014-08-27 09:42:00,
2014-08-27 03:47:00,44.6,25.1,30.17,SSW,195,-999.0,-999.0,46,0.00,,,-99.99,,2014-08-27 09:47:00,
2014-08-27 04:42:00,43.0,27.1,30.17,SSW,195,-999.0,-999.0,53,0.00,,,-99.99,,2014-08-27 10:42:00,
2014-08-27 04:47:00,44.6,29.0,30.17,SSW,195,-999.0,-999.0,54,0.00,,,-99.99,,2014-08-27 10:47:00,
2014-08-27 05:42:00,43.0,27.1,30.14,SSW,195,-999.0,-999.0,53,0.00,,,-99.99,,2014-08-27 11:42:00,
2014-08-27 05:47:00,43.0,27.1,30.17,SSW,195,-999.0,-999.0,53,0.00,,,-99.99,,2014-08-27 11:47:00,
2014-08-27 06:42:00,41.4,26.5,30.20,SSW,195,-999.0,-999.0,55,0.00,,,-99.99,,2014-08-27 12:42:00,
2014-08-27 06:48:00,41.4,26.9,30.20,SSW,195,-999.0,-999.0,56,0.00,,,-99.99,,2014-08-27 12:48:00,
2014-08-27 07:42:00,44.6,35.1,30.20,SSW,195,-999.0,-999.0,69,0.00,,,-99.99,,2014-08-27 13:42:00,
2014-08-27 07:48:00,46.2,37.0,30.20,SSW,195,-999.0,-999.0,70,0.00,,,-99.99,,2014-08-27 13:48:00,
2014-08-27 08:42:00,55.9,35.4,30.17,SSW,195,-999.0,-999.0,46,0.00,,,-99.99,,2014-08-27 14:42:00,
2014-08-27 08:48:00,57.5,36.3,30.20,SSW,195,-999.0,-999.0,45,0.00,,,-99.99,,2014-08-27 14:48:00,
2014-08-27 09:42:00,60.7,35.0,30.14,WNW,285,-999.0,-999.0,38,0.00,,,-99.99,,2014-08-27 15:42:00,
2014-08-27 09:48:00,60.7,35.6,30.17,WNW,285,-999.0,-999.0,39,0.00,,,-99.99,,2014-08-27 15:48:00,
2014-08-27 10:42:00,63.9,37.2,30.14,WNW,286,-999.0,-999.0,37,0.00,,,-99.99,,2014-08-27 16:42:00,
2014-08-27 10:48:00,63.9,37.2,30.14,WNW,286,-999.0,-999.0,37,0.00,,,-99.99,,2014-08-27 16:48:00,
2014-08-27 11:42:00,68.8,40.0,30.17,WNW,285,-999.0,-999.0,35,0.00,,,-99.99,,2014-08-27 17:42:00,
2014-08-27 11:48:00,68.8,40.0,30.17,WNW,286,-999.0,-999.0,35,0.00,,,-99.99,,2014-08-27 17:48:00,
2014-08-27 12:42:00,73.6,44.3,30.14,WNW,286,-999.0,-999.0,35,0.00,,,-99.99,,2014-08-27 18:42:00,
2014-08-27 12:48:00,75.2,44.9,30.14,WNW,287,-999.0,-999.0,34,0.00,,,-99.99,,2014-08-27 18:48:00,
2014-08-27 13:42:00,78.4,48.5,30.14,WNW,285,-999.0,-999.0,35,0.00,,,-99.99,,2014-08-27 19:42:00,
2014-08-27 13:48:00,80.0,49.1,30.10,WNW,286,-999.0,-999.0,34,0.00,,,-99.99,,2014-08-27 19:48:00,
2014-08-27 14:43:00,84.8,52.6,30.10,WNW,286,-999.0,-999.0,33,0.00,,,-99.99,,2014-08-27 20:43:00,
2014-08-27 14:48:00,84.8,52.6,30.10,WNW,286,-999.0,-999.0,33,0.00,,,-99.99,,2014-08-27 20:48:00,
2014-08-27 15:43:00,86.4,54.0,30.00,WNW,286,-999.0,-999.0,33,0.00,,,-99.99,,2014-08-27 21:43:00,
2014-08-27 15:48:00,86.4,54.0,30.04,WNW,287,-999.0,-999.0,33,0.00,,,-99.99,,2014-08-27 21:48:00,
2014-08-27 16:43:00,89.6,55.9,30.07,WNW,286,-999.0,-999.0,32,0.00,,,-99.99,,2014-08-27 22:43:00,
2014-08-27 16:48:00,89.6,55.9,30.07,WNW,286,-999.0,-999.0,32,0.00,,,-99.99,,2014-08-27 22:48:00,
2014-08-27 17:43:00,91.2,56.4,30.04,WNW,285,-999.0,-999.0,31,0.00,,,-99.99,,2014-08-27 23:43:00,
2014-08-27 17:48:00,91.2,57.3,30.07,WNW,286,-999.0,-999.0,32,0.00,,,-99.99,,2014-08-27 23:48:00,
2014-08-27 18:43:00,88.0,53.6,30.00,West,281,-999.0,-999.0,31,0.00,,,-99.99,,2014-08-28 00:43:00,
2014-08-27 18:48:00,88.0,54.5,30.04,West,272,-999.0,-999.0,32,0.00,,,-99.99,,2014-08-28 00:48:00,
2014-08-27 19:43:00,75.2,46.4,30.04,SSW,195,-999.0,-999.0,36,0.00,,,-99.99,,2014-08-28 01:43:00,
2014-08-27 19:49:00,72.0,43.6,30.04,WNW,300,-999.0,-999.0,36,0.00,,,-99.99,,2014-08-28 01:49:00,
2014-08-27 20:43:00,62.3,36.4,30.10,WNW,296,-999.0,-999.0,38,0.00,,,-99.99,,2014-08-28 02:43:00,
2014-08-27 20:49:00,62.3,36.4,30.07,SSW,195,-999.0,-999.0,38,0.00,,,-99.99,,2014-08-28 02:49:00,
2014-08-27 21:43:00,57.5,34.0,30.07,East,95,-999.0,-999.0,41,0.00,,,-99.99,,2014-08-28 03:43:00,
2014-08-27 21:49:00,55.9,32.5,30.10,WSW,245,-999.0,-999.0,41,0.00,,,-99.99,,2014-08-28 03:49:00,
2014-08-27 22:43:00,54.3,31.7,30.07,SSW,195,-999.0,-999.0,42,0.00,,,-99.99,,2014-08-28 04:43:00,
2014-08-27 22:49:00,54.3,31.7,30.07,SSW,195,-999.0,-999.0,42,0.00,,,-99.99,,2014-08-28 04:49:00,
2014-08-27 23:43:00,55.9,32.5,30.04,ESE,115,-999.0,-999.0,41,0.00,,,-99.99,,2014-08-28 05:43:00,
2014-08-27 23:49:00,54.3,31.7,30.07,WNW,298,-999.0,-999.0,42,0.00,,,-99.99,,2014-08-28 05:49:00,